sensor_id;sensor_type;location;lat;lon;timestamp;P1;durP1;ratioP1;P2;durP2;ratioP2
8536;SDS011;4306;50.210;10.628;2022-11-12T00:01:36;7.28;;;6.45;;
8536;SDS011;4306;50.210;10.628;2022-11-12T00:04:03;7.40;;;5.68;;
8536;SDS011;4306;50.210;10.628;2022-11-12T00:06:32;7.13;;;5.47;;
8536;SDS011;4306;50.210;10.628;2022-11-12T00:08:59;12.20;;;5.70;;
8536;SDS011;4306;50.210;10.628;2022-11-12T00:11:25;8.63;;;6.23;;
8536;SDS011;4306;50.210;10.628;2022-11-12T00:13:52;8.30;;;5.60;;
8536;SDS011;4306;50.210;10.628;2022-11-12T00:16:19;7.17;;;5.10;;
8536;SDS011;4306;50.210;10.628;2022-11-12T00:18:46;8.00;;;5.20;;
8536;SDS011;4306;50.210;10.628;2022-11-12T00:21:13;7.50;;;5.57;;
8536;SDS011;4306;50.210;10.628;2022-11-12T00:23:41;7.20;;;5.22;;
8536;SDS011;4306;50.210;10.628;2022-11-12T00:26:08;7.10;;;5.03;;
8536;SDS011;4306;50.210;10.628;2022-11-12T00:28:35;6.23;;;4.90;;
8536;SDS011;4306;50.210;10.628;2022-11-12T00:31:05;6.03;;;4.93;;
8536;SDS011;4306;50.210;10.628;2022-11-12T00:33:33;8.93;;;5.67;;
8536;SDS011;4306;50.210;10.628;2022-11-12T00:36:04;11.10;;;5.80;;
8536;SDS011;4306;50.210;10.628;2022-11-12T00:38:31;10.75;;;6.05;;
8536;SDS011;4306;50.210;10.628;2022-11-12T00:40:59;15.10;;;6.63;;
8536;SDS011;4306;50.210;10.628;2022-11-12T00:43:26;15.60;;;6.80;;
8536;SDS011;4306;50.210;10.628;2022-11-12T00:45:53;20.55;;;8.20;;
8536;SDS011;4306;50.210;10.628;2022-11-12T00:48:20;19.73;;;8.23;;
8536;SDS011;4306;50.210;10.628;2022-11-12T00:50:47;12.23;;;7.00;;
8536;SDS011;4306;50.210;10.628;2022-11-12T00:53:14;26.20;;;9.77;;
8536;SDS011;4306;50.210;10.628;2022-11-12T00:55:41;11.63;;;7.53;;
8536;SDS011;4306;50.210;10.628;2022-11-12T00:58:09;10.07;;;6.75;;
8536;SDS011;4306;50.210;10.628;2022-11-12T01:00:36;23.45;;;6.50;;
8536;SDS011;4306;50.210;10.628;2022-11-12T01:03:03;18.02;;;7.15;;
8536;SDS011;4306;50.210;10.628;2022-11-12T01:05:31;15.52;;;7.22;;
8536;SDS011;4306;50.210;10.628;2022-11-12T01:07:58;18.37;;;6.30;;
8536;SDS011;4306;50.210;10.628;2022-11-12T01:10:25;15.80;;;6.60;;
8536;SDS011;4306;50.210;10.628;2022-11-12T01:12:52;18.30;;;6.50;;
8536;SDS011;4306;50.210;10.628;2022-11-12T01:15:21;21.80;;;7.40;;
8536;SDS011;4306;50.210;10.628;2022-11-12T01:17:48;26.27;;;6.25;;
8536;SDS011;4306;50.210;10.628;2022-11-12T01:20:15;18.15;;;5.97;;
8536;SDS011;4306;50.210;10.628;2022-11-12T01:22:42;21.92;;;5.95;;
8536;SDS011;4306;50.210;10.628;2022-11-12T01:25:08;21.13;;;5.83;;
8536;SDS011;4306;50.210;10.628;2022-11-12T01:27:35;11.80;;;5.60;;
8536;SDS011;4306;50.210;10.628;2022-11-12T01:30:02;15.57;;;5.28;;
8536;SDS011;4306;50.210;10.628;2022-11-12T01:32:34;16.25;;;5.45;;
8536;SDS011;4306;50.210;10.628;2022-11-12T01:35:01;11.02;;;5.13;;
8536;SDS011;4306;50.210;10.628;2022-11-12T01:37:28;8.30;;;5.00;;
8536;SDS011;4306;50.210;10.628;2022-11-12T01:39:55;9.55;;;5.50;;
8536;SDS011;4306;50.210;10.628;2022-11-12T01:42:22;5.93;;;4.50;;
8536;SDS011;4306;50.210;10.628;2022-11-12T01:44:53;8.50;;;4.83;;
8536;SDS011;4306;50.210;10.628;2022-11-12T01:47:20;10.30;;;5.32;;
8536;SDS011;4306;50.210;10.628;2022-11-12T01:49:52;9.20;;;5.63;;
8536;SDS011;4306;50.210;10.628;2022-11-12T01:52:23;8.10;;;5.40;;
8536;SDS011;4306;50.210;10.628;2022-11-12T01:54:55;8.27;;;4.70;;
8536;SDS011;4306;50.210;10.628;2022-11-12T01:57:26;8.57;;;4.90;;
8536;SDS011;4306;50.210;10.628;2022-11-12T01:59:57;7.47;;;4.80;;
8536;SDS011;4306;50.210;10.628;2022-11-12T02:02:30;8.43;;;5.27;;
8536;SDS011;4306;50.210;10.628;2022-11-12T02:04:59;8.10;;;5.10;;
8536;SDS011;4306;50.210;10.628;2022-11-12T02:07:27;7.53;;;4.83;;
8536;SDS011;4306;50.210;10.628;2022-11-12T02:09:55;15.63;;;10.00;;
8536;SDS011;4306;50.210;10.628;2022-11-12T02:12:25;14.57;;;6.17;;
8536;SDS011;4306;50.210;10.628;2022-11-12T02:15:09;7.80;;;4.80;;
8536;SDS011;4306;50.210;10.628;2022-11-12T02:17:36;12.77;;;4.97;;
8536;SDS011;4306;50.210;10.628;2022-11-12T02:20:05;9.23;;;4.70;;
8536;SDS011;4306;50.210;10.628;2022-11-12T02:22:36;15.57;;;5.03;;
8536;SDS011;4306;50.210;10.628;2022-11-12T02:25:03;13.90;;;5.03;;
8536;SDS011;4306;50.210;10.628;2022-11-12T02:27:30;7.10;;;4.57;;
8536;SDS011;4306;50.210;10.628;2022-11-12T02:29:58;11.77;;;4.68;;
8536;SDS011;4306;50.210;10.628;2022-11-12T02:32:24;20.67;;;6.15;;
8536;SDS011;4306;50.210;10.628;2022-11-12T02:34:51;21.97;;;5.23;;
8536;SDS011;4306;50.210;10.628;2022-11-12T02:37:18;23.53;;;5.43;;
8536;SDS011;4306;50.210;10.628;2022-11-12T02:39:46;18.23;;;5.27;;
8536;SDS011;4306;50.210;10.628;2022-11-12T02:42:13;12.07;;;4.77;;
8536;SDS011;4306;50.210;10.628;2022-11-12T02:44:40;21.23;;;5.43;;
8536;SDS011;4306;50.210;10.628;2022-11-12T02:47:07;18.90;;;5.80;;
8536;SDS011;4306;50.210;10.628;2022-11-12T02:49:34;15.60;;;5.53;;
8536;SDS011;4306;50.210;10.628;2022-11-12T02:52:00;18.57;;;4.93;;
8536;SDS011;4306;50.210;10.628;2022-11-12T02:54:27;15.67;;;5.00;;
8536;SDS011;4306;50.210;10.628;2022-11-12T02:56:55;13.37;;;4.80;;
8536;SDS011;4306;50.210;10.628;2022-11-12T02:59:22;11.73;;;4.90;;
8536;SDS011;4306;50.210;10.628;2022-11-12T03:01:49;9.07;;;4.57;;
8536;SDS011;4306;50.210;10.628;2022-11-12T03:04:16;14.27;;;5.10;;
8536;SDS011;4306;50.210;10.628;2022-11-12T03:06:43;9.83;;;4.23;;
8536;SDS011;4306;50.210;10.628;2022-11-12T03:09:10;16.27;;;6.33;;
8536;SDS011;4306;50.210;10.628;2022-11-12T03:11:37;11.15;;;4.80;;
8536;SDS011;4306;50.210;10.628;2022-11-12T03:14:05;8.13;;;4.53;;
8536;SDS011;4306;50.210;10.628;2022-11-12T03:16:32;15.00;;;4.85;;
8536;SDS011;4306;50.210;10.628;2022-11-12T03:18:59;10.43;;;4.87;;
8536;SDS011;4306;50.210;10.628;2022-11-12T03:21:26;10.15;;;4.20;;
8536;SDS011;4306;50.210;10.628;2022-11-12T03:23:53;6.47;;;4.20;;
8536;SDS011;4306;50.210;10.628;2022-11-12T03:26:19;7.03;;;4.13;;
8536;SDS011;4306;50.210;10.628;2022-11-12T03:28:46;11.17;;;4.53;;
8536;SDS011;4306;50.210;10.628;2022-11-12T03:31:14;14.88;;;4.82;;
8536;SDS011;4306;50.210;10.628;2022-11-12T03:33:41;9.13;;;4.43;;
8536;SDS011;4306;50.210;10.628;2022-11-12T03:36:08;16.97;;;5.30;;
8536;SDS011;4306;50.210;10.628;2022-11-12T03:38:36;8.63;;;4.10;;
8536;SDS011;4306;50.210;10.628;2022-11-12T03:41:02;7.07;;;3.87;;
8536;SDS011;4306;50.210;10.628;2022-11-12T03:43:29;6.90;;;3.83;;
8536;SDS011;4306;50.210;10.628;2022-11-12T03:45:56;4.60;;;3.60;;
8536;SDS011;4306;50.210;10.628;2022-11-12T03:48:24;4.60;;;3.20;;
8536;SDS011;4306;50.210;10.628;2022-11-12T03:50:51;7.13;;;4.00;;
8536;SDS011;4306;50.210;10.628;2022-11-12T03:53:22;5.83;;;3.83;;
8536;SDS011;4306;50.210;10.628;2022-11-12T03:55:48;4.80;;;3.17;;
8536;SDS011;4306;50.210;10.628;2022-11-12T03:58:15;6.87;;;4.00;;
8536;SDS011;4306;50.210;10.628;2022-11-12T04:00:42;4.50;;;3.17;;
8536;SDS011;4306;50.210;10.628;2022-11-12T04:03:09;6.33;;;3.40;;
8536;SDS011;4306;50.210;10.628;2022-11-12T04:05:37;5.23;;;3.80;;
8536;SDS011;4306;50.210;10.628;2022-11-12T04:08:22;4.53;;;3.10;;
8536;SDS011;4306;50.210;10.628;2022-11-12T04:11:02;5.30;;;3.47;;
8536;SDS011;4306;50.210;10.628;2022-11-12T04:13:31;5.40;;;3.67;;
8536;SDS011;4306;50.210;10.628;2022-11-12T04:16:01;6.20;;;3.60;;
8536;SDS011;4306;50.210;10.628;2022-11-12T04:18:48;19.90;;;4.10;;
8536;SDS011;4306;50.210;10.628;2022-11-12T04:21:37;5.20;;;3.63;;
8536;SDS011;4306;50.210;10.628;2022-11-12T04:24:20;15.23;;;3.10;;
8536;SDS011;4306;50.210;10.628;2022-11-12T04:27:09;19.37;;;4.47;;
8536;SDS011;4306;50.210;10.628;2022-11-12T04:29:38;15.83;;;4.10;;
8536;SDS011;4306;50.210;10.628;2022-11-12T04:32:23;6.27;;;3.87;;
8536;SDS011;4306;50.210;10.628;2022-11-12T04:34:50;20.60;;;4.80;;
8536;SDS011;4306;50.210;10.628;2022-11-12T04:37:18;14.73;;;4.93;;
8536;SDS011;4306;50.210;10.628;2022-11-12T04:39:46;24.50;;;5.07;;
8536;SDS011;4306;50.210;10.628;2022-11-12T04:42:13;32.27;;;5.43;;
8536;SDS011;4306;50.210;10.628;2022-11-12T04:44:57;30.63;;;6.03;;
8536;SDS011;4306;50.210;10.628;2022-11-12T04:47:31;28.63;;;5.20;;
8536;SDS011;4306;50.210;10.628;2022-11-12T04:50:00;41.90;;;6.63;;
8536;SDS011;4306;50.210;10.628;2022-11-12T04:52:29;46.63;;;6.57;;
8536;SDS011;4306;50.210;10.628;2022-11-12T04:54:56;29.27;;;5.80;;
8536;SDS011;4306;50.210;10.628;2022-11-12T04:57:24;20.93;;;4.63;;
8536;SDS011;4306;50.210;10.628;2022-11-12T04:59:51;31.00;;;6.07;;
8536;SDS011;4306;50.210;10.628;2022-11-12T05:02:18;53.17;;;6.43;;
8536;SDS011;4306;50.210;10.628;2022-11-12T05:04:45;25.83;;;5.33;;
8536;SDS011;4306;50.210;10.628;2022-11-12T05:07:13;23.03;;;7.70;;
8536;SDS011;4306;50.210;10.628;2022-11-12T05:09:42;34.27;;;5.30;;
8536;SDS011;4306;50.210;10.628;2022-11-12T05:12:09;17.35;;;4.95;;
8536;SDS011;4306;50.210;10.628;2022-11-12T05:14:36;19.83;;;5.17;;
8536;SDS011;4306;50.210;10.628;2022-11-12T05:17:03;18.10;;;4.40;;
8536;SDS011;4306;50.210;10.628;2022-11-12T05:19:30;30.43;;;5.00;;
8536;SDS011;4306;50.210;10.628;2022-11-12T05:21:58;25.37;;;5.70;;
8536;SDS011;4306;50.210;10.628;2022-11-12T05:24:33;19.53;;;5.63;;
8536;SDS011;4306;50.210;10.628;2022-11-12T05:27:07;21.33;;;5.27;;
8536;SDS011;4306;50.210;10.628;2022-11-12T05:29:36;15.60;;;4.73;;
8536;SDS011;4306;50.210;10.628;2022-11-12T05:32:03;20.20;;;4.37;;
8536;SDS011;4306;50.210;10.628;2022-11-12T05:34:30;8.77;;;3.93;;
8536;SDS011;4306;50.210;10.628;2022-11-12T05:36:57;18.23;;;4.13;;
8536;SDS011;4306;50.210;10.628;2022-11-12T05:39:24;6.57;;;3.53;;
8536;SDS011;4306;50.210;10.628;2022-11-12T05:41:51;13.13;;;4.60;;
8536;SDS011;4306;50.210;10.628;2022-11-12T05:44:19;8.63;;;3.73;;
8536;SDS011;4306;50.210;10.628;2022-11-12T05:46:46;18.90;;;4.10;;
8536;SDS011;4306;50.210;10.628;2022-11-12T05:49:14;11.33;;;4.33;;
8536;SDS011;4306;50.210;10.628;2022-11-12T05:51:41;9.40;;;3.80;;
8536;SDS011;4306;50.210;10.628;2022-11-12T05:54:09;7.70;;;3.63;;
8536;SDS011;4306;50.210;10.628;2022-11-12T05:56:36;6.30;;;3.20;;
8536;SDS011;4306;50.210;10.628;2022-11-12T05:59:04;5.27;;;3.37;;
8536;SDS011;4306;50.210;10.628;2022-11-12T06:01:34;9.70;;;3.47;;
8536;SDS011;4306;50.210;10.628;2022-11-12T06:04:07;16.03;;;3.73;;
8536;SDS011;4306;50.210;10.628;2022-11-12T06:06:34;6.63;;;3.67;;
8536;SDS011;4306;50.210;10.628;2022-11-12T06:09:01;5.57;;;3.57;;
8536;SDS011;4306;50.210;10.628;2022-11-12T06:11:28;3.93;;;2.83;;
8536;SDS011;4306;50.210;10.628;2022-11-12T06:13:55;10.83;;;3.50;;
8536;SDS011;4306;50.210;10.628;2022-11-12T06:16:22;10.03;;;3.13;;
8536;SDS011;4306;50.210;10.628;2022-11-12T06:18:50;7.90;;;3.50;;
8536;SDS011;4306;50.210;10.628;2022-11-12T06:21:17;6.13;;;3.63;;
8536;SDS011;4306;50.210;10.628;2022-11-12T06:23:44;3.73;;;2.73;;
8536;SDS011;4306;50.210;10.628;2022-11-12T06:26:11;6.83;;;2.90;;
8536;SDS011;4306;50.210;10.628;2022-11-12T06:28:38;5.50;;;2.93;;
8536;SDS011;4306;50.210;10.628;2022-11-12T06:31:05;7.57;;;3.50;;
8536;SDS011;4306;50.210;10.628;2022-11-12T06:33:32;7.20;;;3.70;;
8536;SDS011;4306;50.210;10.628;2022-11-12T06:36:00;4.50;;;3.40;;
8536;SDS011;4306;50.210;10.628;2022-11-12T06:38:29;5.20;;;3.83;;
8536;SDS011;4306;50.210;10.628;2022-11-12T06:40:56;4.90;;;2.97;;
8536;SDS011;4306;50.210;10.628;2022-11-12T06:43:23;5.07;;;2.90;;
8536;SDS011;4306;50.210;10.628;2022-11-12T06:45:50;3.77;;;2.63;;
8536;SDS011;4306;50.210;10.628;2022-11-12T06:48:17;4.53;;;3.03;;
8536;SDS011;4306;50.210;10.628;2022-11-12T06:50:44;3.73;;;3.10;;
8536;SDS011;4306;50.210;10.628;2022-11-12T06:53:12;3.50;;;2.60;;
8536;SDS011;4306;50.210;10.628;2022-11-12T06:55:39;3.57;;;2.40;;
8536;SDS011;4306;50.210;10.628;2022-11-12T06:58:05;3.63;;;2.50;;
8536;SDS011;4306;50.210;10.628;2022-11-12T07:00:32;3.67;;;2.73;;
8536;SDS011;4306;50.210;10.628;2022-11-12T07:03:01;4.57;;;3.00;;
8536;SDS011;4306;50.210;10.628;2022-11-12T07:05:34;3.37;;;2.27;;
8536;SDS011;4306;50.210;10.628;2022-11-12T07:08:02;3.60;;;2.53;;
8536;SDS011;4306;50.210;10.628;2022-11-12T07:10:30;3.57;;;2.30;;
8536;SDS011;4306;50.210;10.628;2022-11-12T07:12:57;3.43;;;2.50;;
8536;SDS011;4306;50.210;10.628;2022-11-12T07:15:24;4.03;;;3.23;;
8536;SDS011;4306;50.210;10.628;2022-11-12T07:17:51;4.23;;;2.90;;
8536;SDS011;4306;50.210;10.628;2022-11-12T07:20:18;3.00;;;2.20;;
8536;SDS011;4306;50.210;10.628;2022-11-12T07:22:45;3.70;;;2.40;;
8536;SDS011;4306;50.210;10.628;2022-11-12T07:25:12;4.30;;;2.67;;
8536;SDS011;4306;50.210;10.628;2022-11-12T07:27:40;9.00;;;2.83;;
8536;SDS011;4306;50.210;10.628;2022-11-12T07:30:07;4.70;;;2.47;;
8536;SDS011;4306;50.210;10.628;2022-11-12T07:32:35;7.03;;;2.57;;
8536;SDS011;4306;50.210;10.628;2022-11-12T07:35:01;30.03;;;14.80;;
8536;SDS011;4306;50.210;10.628;2022-11-12T07:37:28;30.47;;;15.83;;
8536;SDS011;4306;50.210;10.628;2022-11-12T07:39:55;18.23;;;5.13;;
8536;SDS011;4306;50.210;10.628;2022-11-12T07:42:22;35.07;;;8.83;;
8536;SDS011;4306;50.210;10.628;2022-11-12T07:44:50;48.93;;;9.90;;
8536;SDS011;4306;50.210;10.628;2022-11-12T07:47:17;47.83;;;8.73;;
8536;SDS011;4306;50.210;10.628;2022-11-12T07:49:44;34.13;;;7.23;;
8536;SDS011;4306;50.210;10.628;2022-11-12T07:52:10;56.77;;;7.50;;
8536;SDS011;4306;50.210;10.628;2022-11-12T07:54:37;51.53;;;5.43;;
8536;SDS011;4306;50.210;10.628;2022-11-12T07:57:04;45.30;;;6.10;;
8536;SDS011;4306;50.210;10.628;2022-11-12T07:59:31;77.93;;;7.00;;
8536;SDS011;4306;50.210;10.628;2022-11-12T08:01:59;51.70;;;5.83;;
8536;SDS011;4306;50.210;10.628;2022-11-12T08:04:26;57.20;;;6.50;;
8536;SDS011;4306;50.210;10.628;2022-11-12T08:06:52;39.23;;;6.17;;
8536;SDS011;4306;50.210;10.628;2022-11-12T08:09:19;38.00;;;4.57;;
8536;SDS011;4306;50.210;10.628;2022-11-12T08:11:46;36.70;;;4.33;;
8536;SDS011;4306;50.210;10.628;2022-11-12T08:14:13;21.77;;;3.80;;
8536;SDS011;4306;50.210;10.628;2022-11-12T08:16:39;20.90;;;5.10;;
8536;SDS011;4306;50.210;10.628;2022-11-12T08:19:08;26.30;;;5.70;;
8536;SDS011;4306;50.210;10.628;2022-11-12T08:21:34;14.13;;;4.43;;
8536;SDS011;4306;50.210;10.628;2022-11-12T08:24:01;17.30;;;6.00;;
8536;SDS011;4306;50.210;10.628;2022-11-12T08:26:28;12.00;;;4.00;;
8536;SDS011;4306;50.210;10.628;2022-11-12T08:28:55;6.53;;;3.40;;
8536;SDS011;4306;50.210;10.628;2022-11-12T08:31:22;12.70;;;3.63;;
8536;SDS011;4306;50.210;10.628;2022-11-12T08:33:49;11.97;;;5.63;;
8536;SDS011;4306;50.210;10.628;2022-11-12T08:36:17;8.07;;;3.00;;
8536;SDS011;4306;50.210;10.628;2022-11-12T08:38:44;6.03;;;2.80;;
8536;SDS011;4306;50.210;10.628;2022-11-12T08:41:12;6.67;;;4.63;;
8536;SDS011;4306;50.210;10.628;2022-11-12T08:43:41;9.27;;;5.80;;
8536;SDS011;4306;50.210;10.628;2022-11-12T08:46:08;8.13;;;6.00;;
8536;SDS011;4306;50.210;10.628;2022-11-12T08:48:35;12.37;;;8.50;;
8536;SDS011;4306;50.210;10.628;2022-11-12T08:51:04;10.47;;;7.40;;
8536;SDS011;4306;50.210;10.628;2022-11-12T08:53:33;8.35;;;6.03;;
8536;SDS011;4306;50.210;10.628;2022-11-12T08:56:00;6.47;;;4.03;;
8536;SDS011;4306;50.210;10.628;2022-11-12T08:58:27;4.30;;;2.40;;
8536;SDS011;4306;50.210;10.628;2022-11-12T09:00:54;3.40;;;2.20;;
8536;SDS011;4306;50.210;10.628;2022-11-12T09:03:23;4.70;;;2.47;;
8536;SDS011;4306;50.210;10.628;2022-11-12T09:05:51;4.23;;;2.67;;
8536;SDS011;4306;50.210;10.628;2022-11-12T09:08:19;3.70;;;2.40;;
8536;SDS011;4306;50.210;10.628;2022-11-12T09:10:48;3.87;;;2.63;;
8536;SDS011;4306;50.210;10.628;2022-11-12T09:13:16;3.17;;;2.43;;
8536;SDS011;4306;50.210;10.628;2022-11-12T09:15:43;4.77;;;2.90;;
8536;SDS011;4306;50.210;10.628;2022-11-12T09:18:10;3.27;;;2.53;;
8536;SDS011;4306;50.210;10.628;2022-11-12T09:20:39;4.63;;;3.38;;
8536;SDS011;4306;50.210;10.628;2022-11-12T09:23:07;5.27;;;2.83;;
8536;SDS011;4306;50.210;10.628;2022-11-12T09:25:35;3.80;;;2.90;;
8536;SDS011;4306;50.210;10.628;2022-11-12T09:28:07;4.32;;;2.88;;
8536;SDS011;4306;50.210;10.628;2022-11-12T09:30:35;2.93;;;2.23;;
8536;SDS011;4306;50.210;10.628;2022-11-12T09:33:02;3.70;;;2.73;;
8536;SDS011;4306;50.210;10.628;2022-11-12T09:35:30;7.60;;;2.78;;
8536;SDS011;4306;50.210;10.628;2022-11-12T09:37:57;4.70;;;3.50;;
8536;SDS011;4306;50.210;10.628;2022-11-12T09:40:29;8.52;;;3.60;;
8536;SDS011;4306;50.210;10.628;2022-11-12T09:43:09;7.53;;;5.50;;
8536;SDS011;4306;50.210;10.628;2022-11-12T09:45:42;7.03;;;5.27;;
8536;SDS011;4306;50.210;10.628;2022-11-12T09:48:13;4.50;;;3.78;;
8536;SDS011;4306;50.210;10.628;2022-11-12T09:50:47;6.18;;;4.70;;
8536;SDS011;4306;50.210;10.628;2022-11-12T09:53:21;10.25;;;4.20;;
8536;SDS011;4306;50.210;10.628;2022-11-12T09:55:52;6.53;;;4.28;;
8536;SDS011;4306;50.210;10.628;2022-11-12T09:58:21;5.93;;;3.78;;
8536;SDS011;4306;50.210;10.628;2022-11-12T10:00:51;6.03;;;3.75;;
8536;SDS011;4306;50.210;10.628;2022-11-12T10:03:24;5.38;;;4.22;;
8536;SDS011;4306;50.210;10.628;2022-11-12T10:06:00;6.35;;;4.50;;
8536;SDS011;4306;50.210;10.628;2022-11-12T10:08:34;6.40;;;4.57;;
8536;SDS011;4306;50.210;10.628;2022-11-12T10:11:09;6.82;;;4.00;;
8536;SDS011;4306;50.210;10.628;2022-11-12T10:13:49;12.45;;;4.78;;
8536;SDS011;4306;50.210;10.628;2022-11-12T10:16:27;5.10;;;4.13;;
8536;SDS011;4306;50.210;10.628;2022-11-12T10:22:16;9.95;;;6.10;;
8536;SDS011;4306;50.210;10.628;2022-11-12T10:24:53;8.85;;;6.72;;
8536;SDS011;4306;50.210;10.628;2022-11-12T10:27:22;6.72;;;4.65;;
8536;SDS011;4306;50.210;10.628;2022-11-12T10:29:54;7.40;;;5.05;;
8536;SDS011;4306;50.210;10.628;2022-11-12T10:32:25;7.70;;;6.17;;
8536;SDS011;4306;50.210;10.628;2022-11-12T10:34:52;6.57;;;4.90;;
8536;SDS011;4306;50.210;10.628;2022-11-12T10:37:19;8.70;;;5.07;;
8536;SDS011;4306;50.210;10.628;2022-11-12T10:39:50;6.50;;;4.78;;
8536;SDS011;4306;50.210;10.628;2022-11-12T10:42:18;7.20;;;5.07;;
8536;SDS011;4306;50.210;10.628;2022-11-12T10:44:50;9.00;;;5.13;;
8536;SDS011;4306;50.210;10.628;2022-11-12T10:47:42;7.47;;;5.20;;
8536;SDS011;4306;50.210;10.628;2022-11-12T10:50:17;6.82;;;5.05;;
8536;SDS011;4306;50.210;10.628;2022-11-12T10:52:53;7.80;;;5.43;;
8536;SDS011;4306;50.210;10.628;2022-11-12T10:55:23;6.15;;;4.78;;
8536;SDS011;4306;50.210;10.628;2022-11-12T11:00:53;6.10;;;4.90;;
8536;SDS011;4306;50.210;10.628;2022-11-12T11:03:26;7.55;;;4.50;;
8536;SDS011;4306;50.210;10.628;2022-11-12T11:05:55;7.15;;;5.22;;
8536;SDS011;4306;50.210;10.628;2022-11-12T11:08:34;5.43;;;4.40;;
8536;SDS011;4306;50.210;10.628;2022-11-12T11:11:13;6.35;;;4.55;;
8536;SDS011;4306;50.210;10.628;2022-11-12T11:13:45;10.40;;;5.18;;
8536;SDS011;4306;50.210;10.628;2022-11-12T11:16:14;5.35;;;4.10;;
8536;SDS011;4306;50.210;10.628;2022-11-12T11:18:44;8.43;;;6.45;;
8536;SDS011;4306;50.210;10.628;2022-11-12T11:21:21;14.88;;;10.45;;
8536;SDS011;4306;50.210;10.628;2022-11-12T11:24:21;26.25;;;18.95;;
8536;SDS011;4306;50.210;10.628;2022-11-12T11:26:57;16.88;;;12.48;;
8536;SDS011;4306;50.210;10.628;2022-11-12T11:29:35;11.88;;;8.75;;
8536;SDS011;4306;50.210;10.628;2022-11-12T11:32:17;14.55;;;9.77;;
8536;SDS011;4306;50.210;10.628;2022-11-12T11:34:58;9.18;;;6.78;;
8536;SDS011;4306;50.210;10.628;2022-11-12T11:37:35;20.98;;;14.68;;
8536;SDS011;4306;50.210;10.628;2022-11-12T11:40:13;14.25;;;11.02;;
8536;SDS011;4306;50.210;10.628;2022-11-12T11:42:53;14.63;;;10.77;;
8536;SDS011;4306;50.210;10.628;2022-11-12T11:45:31;8.18;;;6.88;;
8536;SDS011;4306;50.210;10.628;2022-11-12T11:48:18;8.55;;;6.78;;
8536;SDS011;4306;50.210;10.628;2022-11-12T11:50:51;8.68;;;6.80;;
8536;SDS011;4306;50.210;10.628;2022-11-12T11:53:28;9.02;;;6.50;;
8536;SDS011;4306;50.210;10.628;2022-11-12T11:56:04;8.18;;;6.75;;
8536;SDS011;4306;50.210;10.628;2022-11-12T11:58:52;8.48;;;6.72;;
8536;SDS011;4306;50.210;10.628;2022-11-12T12:01:37;9.52;;;6.30;;
8536;SDS011;4306;50.210;10.628;2022-11-12T12:04:23;10.90;;;7.97;;
8536;SDS011;4306;50.210;10.628;2022-11-12T12:07:06;8.18;;;6.60;;
8536;SDS011;4306;50.210;10.628;2022-11-12T12:09:42;8.75;;;7.40;;
8536;SDS011;4306;50.210;10.628;2022-11-12T12:12:17;9.35;;;6.80;;
8536;SDS011;4306;50.210;10.628;2022-11-12T12:14:53;7.97;;;6.55;;
8536;SDS011;4306;50.210;10.628;2022-11-12T12:17:38;9.05;;;6.35;;
8536;SDS011;4306;50.210;10.628;2022-11-12T12:20:15;8.02;;;6.50;;
8536;SDS011;4306;50.210;10.628;2022-11-12T12:22:48;9.63;;;7.38;;
8536;SDS011;4306;50.210;10.628;2022-11-12T12:25:20;9.07;;;7.18;;
8536;SDS011;4306;50.210;10.628;2022-11-12T12:27:51;8.50;;;6.78;;
8536;SDS011;4306;50.210;10.628;2022-11-12T12:30:24;8.27;;;6.75;;
8536;SDS011;4306;50.210;10.628;2022-11-12T12:32:54;9.02;;;6.43;;
8536;SDS011;4306;50.210;10.628;2022-11-12T12:35:27;8.55;;;6.85;;
8536;SDS011;4306;50.210;10.628;2022-11-12T12:38:00;9.43;;;6.43;;
8536;SDS011;4306;50.210;10.628;2022-11-12T12:40:38;7.75;;;6.10;;
8536;SDS011;4306;50.210;10.628;2022-11-12T12:43:09;9.73;;;6.20;;
8536;SDS011;4306;50.210;10.628;2022-11-12T12:45:43;8.93;;;6.57;;
8536;SDS011;4306;50.210;10.628;2022-11-12T12:48:12;7.97;;;6.18;;
8536;SDS011;4306;50.210;10.628;2022-11-12T12:50:44;8.77;;;6.50;;
8536;SDS011;4306;50.210;10.628;2022-11-12T12:53:14;18.92;;;11.85;;
8536;SDS011;4306;50.210;10.628;2022-11-12T12:55:43;22.30;;;14.35;;
8536;SDS011;4306;50.210;10.628;2022-11-12T12:58:16;18.90;;;12.98;;
8536;SDS011;4306;50.210;10.628;2022-11-12T13:00:47;20.45;;;13.68;;
8536;SDS011;4306;50.210;10.628;2022-11-12T13:06:22;24.25;;;15.35;;
8536;SDS011;4306;50.210;10.628;2022-11-12T13:08:52;12.27;;;9.05;;
8536;SDS011;4306;50.210;10.628;2022-11-12T13:11:45;12.80;;;7.90;;
8536;SDS011;4306;50.210;10.628;2022-11-12T13:14:44;11.15;;;7.72;;
8536;SDS011;4306;50.210;10.628;2022-11-12T13:17:46;23.27;;;14.13;;
8536;SDS011;4306;50.210;10.628;2022-11-12T13:20:15;19.40;;;12.30;;
8536;SDS011;4306;50.210;10.628;2022-11-12T13:22:59;9.23;;;7.50;;
8536;SDS011;4306;50.210;10.628;2022-11-12T13:25:27;10.95;;;7.30;;
8536;SDS011;4306;50.210;10.628;2022-11-12T13:28:08;11.23;;;7.82;;
8536;SDS011;4306;50.210;10.628;2022-11-12T13:30:56;9.43;;;7.93;;
8536;SDS011;4306;50.210;10.628;2022-11-12T13:33:31;13.27;;;8.43;;
8536;SDS011;4306;50.210;10.628;2022-11-12T13:38:52;10.98;;;7.65;;
8536;SDS011;4306;50.210;10.628;2022-11-12T13:41:21;12.95;;;8.30;;
8536;SDS011;4306;50.210;10.628;2022-11-12T13:44:04;14.18;;;10.45;;
8536;SDS011;4306;50.210;10.628;2022-11-12T13:46:33;17.08;;;12.07;;
8536;SDS011;4306;50.210;10.628;2022-11-12T13:49:00;10.70;;;8.75;;
8536;SDS011;4306;50.210;10.628;2022-11-12T13:51:36;9.73;;;7.78;;
8536;SDS011;4306;50.210;10.628;2022-11-12T13:57:11;13.10;;;9.88;;
8536;SDS011;4306;50.210;10.628;2022-11-12T13:59:39;13.20;;;10.10;;
8536;SDS011;4306;50.210;10.628;2022-11-12T14:02:13;13.30;;;9.80;;
8536;SDS011;4306;50.210;10.628;2022-11-12T14:04:45;16.10;;;13.70;;
8536;SDS011;4306;50.210;10.628;2022-11-12T14:07:16;17.92;;;13.70;;
8536;SDS011;4306;50.210;10.628;2022-11-12T14:09:59;22.95;;;16.67;;
8536;SDS011;4306;50.210;10.628;2022-11-12T14:12:35;19.40;;;14.52;;
8536;SDS011;4306;50.210;10.628;2022-11-12T14:15:21;27.77;;;20.13;;
8536;SDS011;4306;50.210;10.628;2022-11-12T14:17:58;24.55;;;17.63;;
8536;SDS011;4306;50.210;10.628;2022-11-12T14:20:34;10.93;;;8.60;;
8536;SDS011;4306;50.210;10.628;2022-11-12T14:23:02;13.00;;;8.73;;
8536;SDS011;4306;50.210;10.628;2022-11-12T14:25:35;10.38;;;7.88;;
8536;SDS011;4306;50.210;10.628;2022-11-12T14:28:21;9.82;;;7.50;;
8536;SDS011;4306;50.210;10.628;2022-11-12T14:30:50;11.73;;;8.40;;
8536;SDS011;4306;50.210;10.628;2022-11-12T14:33:18;18.67;;;11.52;;
8536;SDS011;4306;50.210;10.628;2022-11-12T14:35:45;12.38;;;9.55;;
8536;SDS011;4306;50.210;10.628;2022-11-12T14:38:14;16.85;;;12.27;;
8536;SDS011;4306;50.210;10.628;2022-11-12T14:40:47;12.93;;;8.13;;
8536;SDS011;4306;50.210;10.628;2022-11-12T14:46:03;10.55;;;7.53;;
8536;SDS011;4306;50.210;10.628;2022-11-12T14:48:33;10.23;;;7.95;;
8536;SDS011;4306;50.210;10.628;2022-11-12T14:51:09;11.18;;;8.30;;
8536;SDS011;4306;50.210;10.628;2022-11-12T14:53:38;10.85;;;8.30;;
8536;SDS011;4306;50.210;10.628;2022-11-12T14:56:11;16.75;;;11.15;;
8536;SDS011;4306;50.210;10.628;2022-11-12T14:58:42;23.55;;;15.10;;
8536;SDS011;4306;50.210;10.628;2022-11-12T15:01:19;20.52;;;12.57;;
8536;SDS011;4306;50.210;10.628;2022-11-12T15:03:47;30.92;;;18.30;;
8536;SDS011;4306;50.210;10.628;2022-11-12T15:06:15;12.05;;;8.93;;
8536;SDS011;4306;50.210;10.628;2022-11-12T15:08:54;16.05;;;10.60;;
8536;SDS011;4306;50.210;10.628;2022-11-12T15:11:24;12.98;;;10.27;;
8536;SDS011;4306;50.210;10.628;2022-11-12T15:13:54;24.88;;;15.48;;
8536;SDS011;4306;50.210;10.628;2022-11-12T15:16:26;17.55;;;11.45;;
8536;SDS011;4306;50.210;10.628;2022-11-12T15:19:01;13.73;;;9.60;;
8536;SDS011;4306;50.210;10.628;2022-11-12T15:21:43;18.05;;;12.40;;
8536;SDS011;4306;50.210;10.628;2022-11-12T15:24:15;17.63;;;10.85;;
8536;SDS011;4306;50.210;10.628;2022-11-12T15:26:46;24.58;;;16.48;;
8536;SDS011;4306;50.210;10.628;2022-11-12T15:29:21;30.15;;;17.20;;
8536;SDS011;4306;50.210;10.628;2022-11-12T15:31:51;20.48;;;13.85;;